Weather at Bradford County Airport

Public forecast

Using degrees Fahrenheit for public forecast. Weather courtesy of forecast.io.

Closest aviation weather report (METAR) to Bradford County Airport

Closest report is Elmira Corning Regional Airport, 32.1 nm (59.4 km) NW. Retrieved 2020/09/21 12:53 UTC (28 minutes ago):

KELM 211253Z 00000KT 10SM CLR 04/01 A3062 RMK AO2 SLP374 T00390011

Closest aviation forecast (TAF) to Bradford County Airport

Closest forecast is Elmira Corning Regional Airport, 32.1 nm (59.4 km) NW. Retrieved 2020/09/21 12:27 UTC (54 minutes ago):

TAF KELM 211125Z 2112/2212 VRB03KT P6SM SKC FM211600 15005KT P6SM SKC FM220000 VRB02KT P6SM SKC FM220900 VRB02KT 4SM BR FEW002